Flight Track Log - Related Links

Times and Time Zones

All times are in EDT time to prevent confusion due to time zone crossing. See the EGF4039 flight status page for this flight to view local times or setup timezone preferences in your user account.

Time Position Orientation Groundspeed Altitude Reporting Facility
EDT Latitude Longitude Course Direction KTS MPH feet Rate Location/Type
Mon 06:18:19 PM 42.5178 -92.4067 97° East 194 223 2,200  Level Chicago Center
Mon 06:19:21 PM 42.4947 -92.3456 117° Southeast 222 255 4,500 2,177 Climbing Chicago Center
Mon 06:20:23 PM 42.4894 -92.2483 94° East 246 283 6,700 2,371 Climbing Chicago Center
Mon 06:21:25 PM 42.4831 -92.1153 94° East 279 321 9,400 2,274 Climbing Chicago Center
Mon 06:22:00 PM 42.4867 -91.7202 97° East  Level FlightAware Approximate
Mon 06:22:27 PM 42.4775 -91.9975 94° East 300 345 11,400  Level Chicago Center
Mon 06:23:00 PM 42.4786 -91.5837 97° East  Level FlightAware Approximate
Mon 06:23:29 PM 42.4711 -91.8697 94° East 327 376 13,100  Level Chicago Center
Mon 06:24:31 PM 42.4636 -91.7344 94° East 363 418 14,600 1,152 Climbing Chicago Center
Mon 06:25:34 PM 42.4533 -91.5581 94° East 394 453 15,500 816 Climbing Chicago Center
Mon 06:26:36 PM 42.4439 -91.3989 95° East 422 486 16,300 774 Climbing Chicago Center
Mon 06:27:38 PM 42.4331 -91.2358 95° East 438 504 17,100 774 Climbing Chicago Center
Mon 06:28:40 PM 42.4233 -91.0681 94° East 452 520 17,900 919 Climbing Chicago Center
Mon 06:29:42 PM 42.4100 -90.8619 95° East 462 532 19,000 919 Climbing Chicago Center
Mon 06:30:44 PM 42.4014 -90.6861 94° East 472 543 19,800 774 Climbing Chicago Center
Mon 06:31:46 PM 42.4200 -90.5097 82° East 477 549 20,600 823 Climbing Chicago Center
Mon 06:32:48 PM 42.4386 -90.3297 82° East 488 562 21,500 919 Climbing Chicago Center
Mon 06:33:50 PM 42.4317 -90.1083 92° East 497 572 22,500 720 Climbing Chicago Center
Mon 06:34:53 PM 42.4247 -89.9222 93° East 499 574 23,000 240 Climbing Chicago Center
Mon 06:35:55 PM 42.4194 -89.7169 92° East 507 583 23,000 -532 Level Chicago Center
Mon 06:36:57 PM 42.4122 -89.5269 93° East 508 585 21,900 -1,645 Descending Chicago Center
Mon 06:37:59 PM 42.4058 -89.3406 93° East 500 575 19,600 -2,371 Descending Chicago Center
Mon 06:39:01 PM 42.4008 -89.1639 92° East 476 548 17,000 -2,468 Descending Chicago Center
Mon 06:40:03 PM 42.3939 -88.9989 93° East 448 516 14,500 -2,613 Descending Chicago Center
Mon 06:41:05 PM 42.3864 -88.8100 93° East 434 499 11,600 -2,177 Descending Chicago Center
Mon 06:42:07 PM 42.3808 -88.6594 93° East 408 470 10,000 -774 Descending Chicago Center
Mon 06:43:09 PM 42.3750 -88.5128 93° East 397 457 10,000  Level Chicago Center
Mon 06:44:11 PM 42.3372 -88.3786 111° Southeast 382 440 10,000  Level Chicago Center
Mon 06:45:13 PM 42.2672 -88.2661 130° Southeast 379 436 10,000  Level Chicago Center
Mon 06:46:15 PM 42.2011 -88.1550 129° Southeast 379 436 10,000 -726 Level Chicago Center
Mon 06:47:17 PM 42.1361 -88.0783 139° Southeast 319 367 8,500 -1,806 Descending Chicago Center
Mon 06:47:48 PM 42.1000 -88.0167 128° Southeast 307 353 7,200 -989 Descending Chicago TRACON
Mon 06:48:48 PM 42.0833 -87.9167 103° East 281 323 7,000 -248 Descending Chicago TRACON
Mon 06:49:49 PM 42.0833 -87.8167 90° East 240 276 6,700 -893 Descending Chicago TRACON
Mon 06:50:49 PM 42.0833 -87.7333 90° East 227 261 5,200 -1,500 Descending Chicago TRACON

Login

Don't have an account? Register now (free) for customized features, flight alerts, and more!